createdAt,value
2022-08-19T00:02:00.833Z,99405.28
2022-08-19T00:04:31.488Z,99403.50
2022-08-19T00:06:58.968Z,99385.59
2022-08-19T00:09:26.061Z,99383.81
2022-08-19T00:11:54.060Z,99384.31
2022-08-19T00:14:21.885Z,99371.31
2022-08-19T00:16:49.284Z,99364.88
2022-08-19T00:19:17.521Z,99353.75
2022-08-19T00:21:44.304Z,99358.97
2022-08-19T00:24:13.127Z,99356.47
2022-08-19T00:26:40.760Z,99355.16
2022-08-19T00:29:10.892Z,99351.00
2022-08-19T00:31:37.567Z,99344.03
2022-08-19T00:34:05.170Z,99350.81
2022-08-19T00:36:33.589Z,99350.81
2022-08-19T00:39:00.344Z,99341.44
2022-08-19T00:41:27.654Z,99343.00
2022-08-19T00:44:05.469Z,99349.22
2022-08-19T00:46:34.083Z,99347.94
2022-08-19T00:49:02.196Z,99339.41
2022-08-19T00:51:33.497Z,99359.28
2022-08-19T00:54:02.186Z,99373.13
2022-08-19T00:56:29.210Z,99370.72
2022-08-19T00:58:59.054Z,99372.00
2022-08-19T01:01:26.426Z,99359.97
2022-08-19T01:03:57.660Z,99337.63
2022-08-19T01:06:26.351Z,99326.63
2022-08-19T01:08:53.005Z,99328.22
2022-08-19T01:11:19.606Z,99324.31
2022-08-19T01:13:49.926Z,99328.41
2022-08-19T01:16:19.274Z,99325.25
2022-08-19T01:18:46.128Z,99318.78
2022-08-19T01:21:47.783Z,99303.47
2022-08-19T01:24:14.330Z,99293.13
2022-08-19T01:26:44.597Z,99287.47
2022-08-19T01:29:11.965Z,99286.13
2022-08-19T01:31:40.083Z,99283.81
2022-08-19T01:34:07.691Z,99288.22
2022-08-19T01:36:42.969Z,99290.78
2022-08-19T01:39:13.006Z,99292.38
2022-08-19T01:41:40.457Z,99280.16
2022-08-19T01:44:18.370Z,99283.00
2022-08-19T01:46:48.455Z,99275.53
2022-08-19T01:49:17.575Z,99276.84
2022-08-19T01:51:44.149Z,99281.53
2022-08-19T01:54:13.952Z,99286.69
2022-08-19T01:56:51.745Z,99279.97
2022-08-19T01:59:21.575Z,99283.06
2022-08-19T02:01:48.436Z,99266.44
2022-08-19T02:04:15.721Z,99283.81
2022-08-19T02:06:42.440Z,99285.66
2022-08-19T02:09:09.862Z,99285.25
2022-08-19T02:11:38.521Z,99269.63
2022-08-19T02:14:07.799Z,99282.03
2022-08-19T02:16:35.547Z,99282.28
2022-08-19T02:19:02.265Z,99271.88
2022-08-19T02:21:30.508Z,99263.38
2022-08-19T02:23:57.390Z,99256.84
2022-08-19T02:26:24.551Z,99255.53
2022-08-19T02:28:51.283Z,99251.16
2022-08-19T02:31:21.211Z,99263.59
2022-08-19T02:33:48.615Z,99256.59
2022-08-19T02:36:17.197Z,99251.69
2022-08-19T02:38:54.202Z,99249.34
2022-08-19T02:41:27.121Z,99248.06
2022-08-19T02:44:30.456Z,99250.38
2022-08-19T02:46:42.217Z,99251.72
2022-08-19T02:49:09.150Z,99251.72
2022-08-19T02:51:39.538Z,99254.03
2022-08-19T02:54:09.945Z,99258.22
2022-08-19T02:56:38.816Z,99260.81
2022-08-19T02:59:11.590Z,99246.63
2022-08-19T03:01:41.811Z,99255.66
2022-08-19T03:04:14.450Z,99245.31
2022-08-19T03:06:44.825Z,99242.22
2022-08-19T03:09:12.277Z,99242.53
2022-08-19T03:11:39.528Z,99257.28
2022-08-19T03:14:09.427Z,99265.63
2022-08-19T03:16:46.287Z,99279.34
2022-08-19T03:19:13.639Z,99292.56
2022-08-19T03:21:40.365Z,99288.69
2022-08-19T03:24:09.428Z,99291.81
2022-08-19T03:26:41.056Z,99294.41
2022-08-19T03:29:10.149Z,99284.81
2022-08-19T03:31:42.052Z,99294.41
2022-08-19T03:34:21.488Z,99290.28
2022-08-19T03:36:48.943Z,99289.50
2022-08-19T03:39:16.307Z,99285.34
2022-08-19T03:41:46.432Z,99286.91
2022-08-19T03:44:18.665Z,99288.19
2022-08-19T03:46:47.296Z,99283.00
2022-08-19T03:49:14.760Z,99287.94
2022-08-19T03:51:42.437Z,99283.50
2022-08-19T03:54:11.908Z,99291.56
2022-08-19T03:56:40.853Z,99302.69
2022-08-19T03:59:11.777Z,99290.78
2022-08-19T04:01:38.374Z,99295.19
2022-08-19T04:04:05.397Z,68515.09
2022-08-19T04:06:35.539Z,68515.09
2022-08-19T04:09:09.614Z,68515.09
2022-08-19T04:11:44.583Z,68515.09
2022-08-19T04:14:14.184Z,68515.09
2022-08-19T04:16:45.390Z,99289.50
2022-08-19T04:19:12.887Z,99318.78
2022-08-19T04:21:39.421Z,99315.94
2022-08-19T04:24:06.715Z,99300.16
2022-08-19T04:26:37.801Z,99317.75
2022-08-19T04:29:19.704Z,99322.69
2022-08-19T04:31:47.092Z,99324.50
2022-08-19T04:34:16.779Z,99317.25
2022-08-19T04:36:46.836Z,99323.19
2022-08-19T04:39:16.608Z,99316.69
2022-08-19T04:42:02.317Z,99307.38
2022-08-19T04:44:33.415Z,99314.38
2022-08-19T04:47:10.868Z,99303.00
2022-08-19T04:49:37.638Z,99289.22
2022-08-19T04:52:04.432Z,99303.47
2022-08-19T04:54:38.163Z,99295.19
2022-08-19T04:57:07.930Z,99299.09
2022-08-19T04:59:35.167Z,99300.66
2022-08-19T05:02:01.879Z,99296.50
2022-08-19T05:04:32.942Z,99295.72
2022-08-19T05:07:01.396Z,99292.63
2022-08-19T05:09:33.100Z,99299.63
2022-08-19T05:12:16.706Z,99308.16
2022-08-19T05:14:44.234Z,99304.53
2022-08-19T05:17:27.009Z,99308.44
2022-08-19T05:20:13.519Z,99305.31
2022-08-19T05:22:40.982Z,99311.53
2022-08-19T05:25:13.351Z,99311.28
2022-08-19T05:27:41.024Z,99307.13
2022-08-19T05:30:08.375Z,99308.94
2022-08-19T05:32:34.982Z,99299.06
2022-08-19T05:35:01.805Z,99309.19
2022-08-19T05:37:28.643Z,99319.56
2022-08-19T05:39:56.657Z,99328.13
2022-08-19T05:42:24.220Z,99327.84
2022-08-19T05:44:51.192Z,99316.19
2022-08-19T05:47:20.720Z,99313.06
2022-08-19T05:49:48.203Z,99319.31
2022-08-19T05:52:19.578Z,99310.50
2022-08-19T05:54:56.160Z,99315.13
2022-08-19T05:57:23.966Z,99300.88
2022-08-19T05:59:53.248Z,99307.63
2022-08-19T06:02:26.011Z,99312.81
2022-08-19T06:04:52.753Z,99321.13
2022-08-19T06:07:20.396Z,99339.25
2022-08-19T06:10:00.667Z,99333.56
2022-08-19T06:12:34.111Z,99334.03
2022-08-19T06:15:06.760Z,99351.97
2022-08-19T06:17:35.717Z,99360.53
2022-08-19T06:20:04.781Z,99362.84
2022-08-19T06:22:31.354Z,99373.75
2022-08-19T06:24:58.015Z,99373.47
2022-08-19T06:27:24.665Z,99381.25
2022-08-19T06:29:51.249Z,99378.41
2022-08-19T06:32:19.895Z,99378.13
2022-08-19T06:34:47.287Z,99377.91
2022-08-19T06:37:14.145Z,89790.69
2022-08-19T06:39:43.481Z,68515.09
2022-08-19T06:42:12.564Z,68515.09
2022-08-19T06:44:43.153Z,68515.09
2022-08-19T06:47:14.623Z,68515.09
2022-08-19T06:49:42.660Z,68515.09
2022-08-19T06:52:13.808Z,68515.09
2022-08-19T06:54:55.754Z,68515.09
2022-08-19T06:57:24.691Z,68515.09
2022-08-19T06:59:51.553Z,68515.09
2022-08-19T07:04:52.685Z,68515.09
2022-08-19T07:07:21.522Z,68515.09
2022-08-19T07:09:58.587Z,68515.09
2022-08-19T07:12:33.939Z,68515.09
2022-08-19T07:15:04.736Z,68515.09
2022-08-19T07:17:32.148Z,68515.09
2022-08-19T07:20:06.985Z,68515.09
2022-08-19T07:22:36.394Z,68515.09
2022-08-19T07:25:05.129Z,68515.09
2022-08-19T07:27:33.657Z,68515.09
2022-08-19T07:30:01.120Z,68515.09
2022-08-19T07:32:28.143Z,68515.09
2022-08-19T07:34:56.278Z,68515.09
2022-08-19T07:37:23.885Z,68515.09
2022-08-19T07:39:50.469Z,68515.09
2022-08-19T07:42:18.140Z,68515.09
2022-08-19T07:44:50.020Z,68515.09
2022-08-19T07:47:48.935Z,68515.09
2022-08-19T07:50:08.188Z,68515.09
2022-08-19T07:52:35.739Z,68515.09
2022-08-19T07:55:04.900Z,68515.09
2022-08-19T07:57:31.719Z,68515.09
2022-08-19T07:59:58.587Z,68515.09
2022-08-19T08:02:25.149Z,68515.09
2022-08-19T08:05:10.277Z,68515.09
2022-08-19T08:08:14.962Z,68515.09
2022-08-19T08:10:41.584Z,68515.09
2022-08-19T08:13:10.858Z,68515.09
2022-08-19T08:15:42.756Z,68515.09
2022-08-19T08:18:10.414Z,68515.09
2022-08-19T08:20:36.975Z,68515.09
2022-08-19T08:23:22.329Z,99387.75
2022-08-19T08:25:50.001Z,99487.22
2022-08-19T08:28:20.559Z,99483.50
2022-08-19T08:30:49.304Z,99476.56
2022-08-19T08:33:33.124Z,99481.94
2022-08-19T08:36:03.953Z,99470.41
2022-08-19T08:38:38.394Z,99470.41
2022-08-19T08:41:20.537Z,99466.22
2022-08-19T08:43:50.039Z,99470.69
2022-08-19T08:46:30.489Z,99476.72
2022-08-19T08:49:21.426Z,99475.84
2022-08-19T08:51:56.075Z,99483.78
2022-08-19T08:54:55.322Z,99479.28
2022-08-19T08:57:41.244Z,99475.28
2022-08-19T09:00:16.188Z,99471.03
2022-08-19T09:02:43.975Z,99467.56
2022-08-19T09:05:16.707Z,99469.16
2022-08-19T09:08:14.874Z,99445.03
2022-08-19T09:10:55.317Z,99435.84
2022-08-19T09:13:37.287Z,99439.22
2022-08-19T09:16:15.167Z,99445.19
2022-08-19T09:18:49.853Z,99450.31
2022-08-19T09:21:17.202Z,99455.59
2022-08-19T09:23:44.345Z,99460.47
2022-08-19T09:26:14.605Z,99474.50
2022-08-19T09:28:44.794Z,99464.69
2022-08-19T09:31:18.647Z,99457.38
2022-08-19T09:33:45.817Z,99456.13
2022-08-19T09:36:15.026Z,99457.16
2022-08-19T09:38:57.941Z,99466.97
2022-08-19T09:41:25.907Z,99463.00
2022-08-19T09:43:57.280Z,99457.91
2022-08-19T09:46:29.004Z,99461.75
2022-08-19T09:48:59.393Z,99462.50
2022-08-19T09:51:34.047Z,99453.84
2022-08-19T09:54:05.153Z,99463.72
2022-08-19T09:56:32.567Z,99463.72
2022-08-19T09:59:01.148Z,99464.59
2022-08-19T10:01:31.166Z,99458.03
2022-08-19T10:04:00.066Z,99473.19
2022-08-19T10:06:43.973Z,99468.00
2022-08-19T10:09:13.504Z,99463.47
2022-08-19T10:11:54.901Z,99462.28
2022-08-19T10:14:24.368Z,99468.84
2022-08-19T10:16:51.725Z,99468.63
2022-08-19T10:19:26.121Z,99476.81
2022-08-19T10:21:53.452Z,99470.16
2022-08-19T10:24:21.466Z,99473.56
2022-08-19T10:26:57.202Z,99468.06
2022-08-19T10:29:32.235Z,99466.81
2022-08-19T10:32:02.798Z,99468.72
2022-08-19T10:34:31.291Z,99464.88
2022-08-19T10:37:01.278Z,99455.31
2022-08-19T10:39:31.378Z,99455.34
2022-08-19T10:41:59.206Z,99458.84
2022-08-19T10:44:31.962Z,99445.19
2022-08-19T10:47:00.183Z,99446.31
2022-08-19T10:49:28.121Z,99445.31
2022-08-19T10:52:18.613Z,99449.97
2022-08-19T10:55:05.386Z,99450.69
2022-08-19T11:00:24.105Z,99452.28
2022-08-19T11:02:51.283Z,99453.13
2022-08-19T11:05:19.056Z,99457.97
2022-08-19T11:07:46.100Z,99450.53
2022-08-19T11:10:19.472Z,99445.00
2022-08-19T11:12:48.097Z,99447.38
2022-08-19T11:15:14.750Z,99446.72
2022-08-19T11:17:43.748Z,99450.81
2022-08-19T11:20:15.029Z,99445.81
2022-08-19T11:22:42.339Z,99463.16
2022-08-19T11:25:11.729Z,99459.28
2022-08-19T11:27:42.705Z,99456.94
2022-08-19T11:30:12.952Z,99454.66
2022-08-19T11:32:43.587Z,99451.53
2022-08-19T11:35:13.956Z,99447.03
2022-08-19T11:37:41.627Z,99453.53
2022-08-19T11:40:08.941Z,99456.94
2022-08-19T11:42:54.247Z,99454.94
2022-08-19T11:45:20.737Z,99457.75
2022-08-19T11:47:48.378Z,99454.09
2022-08-19T11:50:16.516Z,99465.41
2022-08-19T11:52:45.116Z,99450.53
2022-08-19T11:55:13.503Z,99458.41
2022-08-19T11:57:41.887Z,99463.06
2022-08-19T12:00:10.255Z,99445.19
2022-08-19T12:02:37.122Z,99449.69
2022-08-19T12:05:04.967Z,99450.25
2022-08-19T12:07:34.361Z,99451.44
2022-08-19T12:10:01.814Z,99433.66
2022-08-19T12:12:30.292Z,99445.13
2022-08-19T12:14:59.149Z,99441.66
2022-08-19T12:17:28.002Z,99436.69
2022-08-19T12:19:54.900Z,99442.59
2022-08-19T12:22:22.367Z,99440.66
2022-08-19T12:24:51.652Z,99442.66
2022-08-19T12:27:40.014Z,99453.63
2022-08-19T12:30:08.162Z,99443.28
2022-08-19T12:32:35.104Z,99444.41
2022-08-19T12:35:02.179Z,99451.31
2022-08-19T12:37:28.732Z,99448.25
2022-08-19T12:39:55.297Z,99442.31
2022-08-19T12:42:23.572Z,99444.81
2022-08-19T12:44:50.385Z,99448.25
2022-08-19T12:47:18.047Z,99458.47
2022-08-19T12:49:54.890Z,99450.75
2022-08-19T12:52:26.826Z,99451.41
2022-08-19T12:54:55.643Z,99449.88
2022-08-19T12:57:31.500Z,99453.56
2022-08-19T12:59:59.146Z,99454.53
2022-08-19T13:02:25.744Z,99451.09
2022-08-19T13:04:52.234Z,99455.72
2022-08-19T13:07:18.743Z,99435.66
2022-08-19T13:09:45.640Z,99439.44
2022-08-19T13:12:14.078Z,99446.44
2022-08-19T13:14:41.540Z,99441.06
2022-08-19T13:17:09.249Z,99433.91
2022-08-19T13:19:37.651Z,99439.53
2022-08-19T13:22:04.264Z,99434.50
2022-08-19T13:24:33.581Z,99435.13
2022-08-19T13:27:01.757Z,99433.16
2022-08-19T13:29:46.863Z,99437.44
2022-08-19T13:32:32.279Z,99435.84
2022-08-19T13:34:58.836Z,99437.25
2022-08-19T13:37:43.556Z,99439.91
2022-08-19T13:40:19.320Z,99442.16
2022-08-19T13:42:48.547Z,99437.66
2022-08-19T13:45:18.949Z,99438.84
2022-08-19T13:47:47.927Z,99440.78
2022-08-19T13:50:18.148Z,99443.41
2022-08-19T13:52:45.336Z,68515.09
2022-08-19T13:55:13.194Z,68515.09
2022-08-19T13:57:40.085Z,68515.09
2022-08-19T14:00:11.624Z,68515.09
2022-08-19T14:02:39.974Z,68515.09
2022-08-19T14:05:11.420Z,99439.66
2022-08-19T14:07:38.490Z,99440.94
2022-08-19T14:10:07.697Z,99444.00
2022-08-19T14:12:34.332Z,99441.47
2022-08-19T14:15:01.927Z,99438.53
2022-08-19T14:17:29.831Z,99441.53
2022-08-19T14:20:10.491Z,99437.59
2022-08-19T14:22:39.263Z,99434.25
2022-08-19T14:25:07.986Z,99432.28
2022-08-19T14:27:35.936Z,99432.41
2022-08-19T14:30:04.268Z,99433.47
2022-08-19T14:32:31.112Z,99431.50
2022-08-19T14:34:57.619Z,99431.41
2022-08-19T14:37:24.147Z,99419.25
2022-08-19T14:39:51.911Z,99427.09
2022-08-19T14:42:18.794Z,99421.25
2022-08-19T14:44:45.309Z,99424.75
2022-08-19T14:47:12.302Z,99425.09
2022-08-19T14:49:43.017Z,99426.19
2022-08-19T14:52:12.590Z,99419.72
2022-08-19T14:54:39.107Z,99417.28
2022-08-19T14:57:05.651Z,99417.72
2022-08-19T14:59:32.320Z,99413.19
2022-08-19T15:02:00.631Z,99411.78
2022-08-19T15:04:47.327Z,99416.50
2022-08-19T15:07:28.265Z,99424.16
2022-08-19T15:09:55.842Z,99384.63
2022-08-19T15:12:23.484Z,99417.09
2022-08-19T15:14:56.002Z,99422.06
2022-08-19T15:17:41.407Z,99425.06
2022-08-19T15:20:12.249Z,99416.88
2022-08-19T15:22:38.989Z,99423.50
2022-08-19T15:25:07.497Z,99420.00
2022-08-19T15:27:35.191Z,99427.06
2022-08-19T15:30:01.891Z,99425.38
2022-08-19T15:32:31.367Z,99423.69
2022-08-19T15:34:57.924Z,99425.69
2022-08-19T15:37:25.261Z,99430.97
2022-08-19T15:39:52.148Z,99432.97
2022-08-19T15:42:29.542Z,99431.63
2022-08-19T15:45:00.369Z,99440.09
2022-08-19T15:47:35.407Z,99435.97
2022-08-19T15:50:10.530Z,99433.75
2022-08-19T15:52:49.224Z,99434.16
2022-08-19T15:55:31.353Z,99439.44
2022-08-19T15:58:29.695Z,99443.25
2022-08-19T16:01:26.825Z,99446.59
2022-08-19T16:04:15.967Z,99456.38
2022-08-19T16:06:51.952Z,99451.72
2022-08-19T16:09:26.427Z,99447.22
2022-08-19T16:11:56.721Z,99451.56
2022-08-19T16:14:24.538Z,99442.66
2022-08-19T16:19:35.262Z,99397.31
2022-08-19T16:22:01.779Z,99442.97
2022-08-19T16:24:28.593Z,99424.97
2022-08-19T16:26:56.405Z,99429.75
2022-08-19T16:29:34.089Z,99435.28
2022-08-19T16:32:02.875Z,99435.19
2022-08-19T16:34:30.816Z,99428.94
2022-08-19T16:36:57.373Z,99436.38
2022-08-19T16:39:24.168Z,99447.44
2022-08-19T16:41:51.535Z,99450.84
2022-08-19T16:44:21.071Z,99456.66
2022-08-19T16:46:52.572Z,99457.38
2022-08-19T16:49:53.389Z,99461.09
2022-08-19T16:52:14.883Z,99461.53
2022-08-19T16:54:43.739Z,99455.25
2022-08-19T16:57:12.344Z,99459.06
2022-08-19T16:59:48.370Z,99441.16
2022-08-19T17:02:21.187Z,99457.91
2022-08-19T17:04:57.681Z,99461.22
2022-08-19T17:07:26.735Z,99458.16
2022-08-19T17:09:53.428Z,99469.44
2022-08-19T17:12:21.955Z,99474.00
2022-08-19T17:14:49.117Z,99476.38
2022-08-19T17:17:16.000Z,99478.78
2022-08-19T17:19:44.499Z,99475.78
2022-08-19T17:22:12.907Z,99469.56
2022-08-19T17:24:40.671Z,99474.31
2022-08-19T17:27:08.098Z,99475.88
2022-08-19T17:29:35.424Z,99482.41
2022-08-19T17:32:02.466Z,99479.88
2022-08-19T17:34:29.133Z,99481.91
2022-08-19T17:36:56.938Z,99478.34
2022-08-19T17:39:24.037Z,99487.19
2022-08-19T17:41:50.531Z,99506.22
2022-08-19T17:44:18.882Z,99504.13
2022-08-19T17:46:46.827Z,99510.09
2022-08-19T17:49:13.610Z,99526.59
2022-08-19T17:51:44.884Z,99516.22
2022-08-19T17:54:15.612Z,99530.63
2022-08-19T17:56:43.670Z,99525.69
2022-08-19T17:59:14.256Z,99534.47
2022-08-19T18:01:52.553Z,99540.50
2022-08-19T18:04:21.449Z,99546.50
2022-08-19T18:06:52.992Z,99556.09
2022-08-19T18:09:23.904Z,99560.28
2022-08-19T18:11:52.621Z,99551.41
2022-08-19T18:14:20.564Z,99551.06
2022-08-19T18:16:47.287Z,99551.16
2022-08-19T18:19:15.181Z,99548.34
2022-08-19T18:21:41.652Z,99552.78
2022-08-19T18:24:08.172Z,99541.25
2022-08-19T18:26:34.957Z,99546.25
2022-08-19T18:29:02.013Z,99550.38
2022-08-19T18:31:29.132Z,99541.41
2022-08-19T18:33:56.348Z,99557.72
2022-08-19T18:36:50.083Z,99543.41
2022-08-19T18:39:29.378Z,99552.41
2022-08-19T18:42:14.859Z,99556.00
2022-08-19T18:45:00.463Z,99563.78
2022-08-19T18:47:46.104Z,99576.28
2022-08-19T18:50:13.819Z,99577.28
2022-08-19T18:52:40.743Z,99569.47
2022-08-19T18:55:07.968Z,99584.75
2022-08-19T18:57:34.525Z,99575.59
2022-08-19T19:00:02.876Z,99580.59
2022-08-19T19:02:29.407Z,99589.97
2022-08-19T19:04:56.156Z,99603.31
2022-08-19T19:07:23.346Z,99608.06
2022-08-19T19:09:51.208Z,99622.56
2022-08-19T19:12:18.289Z,99630.28
2022-08-19T19:14:49.515Z,99641.84
2022-08-19T19:17:17.103Z,99659.47
2022-08-19T19:19:44.182Z,99660.06
2022-08-19T19:22:13.154Z,99660.34
2022-08-19T19:24:44.165Z,99668.47
2022-08-19T19:27:13.055Z,99660.22
2022-08-19T19:29:40.329Z,99648.81
2022-08-19T19:32:16.646Z,99642.09
2022-08-19T19:34:43.404Z,99642.31
2022-08-19T19:37:09.954Z,99637.13
2022-08-19T19:39:46.592Z,99620.25
2022-08-19T19:42:20.440Z,99630.56
2022-08-19T19:44:52.121Z,99634.97
2022-08-19T19:47:19.641Z,99636.53
2022-08-19T19:50:13.304Z,99640.22
2022-08-19T19:52:40.827Z,99657.72
2022-08-19T19:55:09.229Z,99661.59
2022-08-19T19:57:35.760Z,99682.69
2022-08-19T20:00:02.455Z,99679.09
2022-08-19T20:02:28.976Z,99694.44
2022-08-19T20:04:58.802Z,99686.66
2022-08-19T20:07:45.440Z,99688.19
2022-08-19T20:10:13.975Z,99690.56
2022-08-19T20:12:40.524Z,99690.56
2022-08-19T20:15:08.230Z,99693.16
2022-08-19T20:17:42.315Z,99695.19
2022-08-19T20:20:14.280Z,99681.19
2022-08-19T20:22:43.043Z,99690.56
2022-08-19T20:25:11.437Z,99682.47
2022-08-19T20:27:39.924Z,99678.63
2022-08-19T20:30:19.221Z,99673.66
2022-08-19T20:32:47.000Z,99666.06
2022-08-19T20:35:16.398Z,99665.31
2022-08-19T20:37:42.999Z,99658.53
2022-08-19T20:40:10.539Z,99656.16
2022-08-19T20:42:40.432Z,99654.34
2022-08-19T20:45:16.392Z,99652.81
2022-08-19T20:47:56.396Z,99649.69
2022-08-19T20:50:23.162Z,99655.66
2022-08-19T20:52:53.518Z,99653.28
2022-08-19T20:55:22.017Z,99652.53
2022-08-19T20:57:49.624Z,99653.03
2022-08-19T21:00:16.531Z,99650.22
2022-08-19T21:02:43.060Z,99659.34
2022-08-19T21:05:09.745Z,99664.00
2022-08-19T21:07:39.117Z,99661.94
2022-08-19T21:10:07.011Z,99672.38
2022-08-19T21:12:33.626Z,99673.41
2022-08-19T21:15:00.218Z,99660.94
2022-08-19T21:17:26.748Z,99676.19
2022-08-19T21:19:53.258Z,99674.97
2022-08-19T21:22:20.177Z,99671.47
2022-08-19T21:24:46.896Z,99679.22
2022-08-19T21:27:13.704Z,99678.22
2022-08-19T21:29:42.065Z,99657.56
2022-08-19T21:32:14.040Z,99652.63
2022-08-19T21:34:42.780Z,99647.94
2022-08-19T21:37:17.674Z,99644.84
2022-08-19T21:39:51.940Z,99648.72
2022-08-19T21:42:18.570Z,99648.47
2022-08-19T21:44:46.005Z,99644.84
2022-08-19T21:47:12.860Z,99638.34
2022-08-19T21:49:39.565Z,99622.75
2022-08-19T21:52:06.843Z,99617.56
2022-08-19T21:54:37.703Z,99631.31
2022-08-19T21:57:10.132Z,99623.53
2022-08-19T21:59:39.714Z,99624.34
2022-08-19T22:02:19.574Z,99584.59
2022-08-19T22:04:47.499Z,99605.91
2022-08-19T22:07:14.796Z,99609.03
2022-08-19T22:09:43.053Z,99618.34
2022-08-19T22:12:23.528Z,99605.13
2022-08-19T22:14:51.765Z,99600.19
2022-08-19T22:17:19.387Z,99593.69
2022-08-19T22:19:46.035Z,99588.50
2022-08-19T22:22:12.679Z,99589.03
2022-08-19T22:24:39.161Z,99542.06
2022-08-19T22:27:06.833Z,99590.06
2022-08-19T22:29:36.263Z,99598.91
2022-08-19T22:32:26.318Z,99599.41
2022-08-19T22:34:50.798Z,99597.06
2022-08-19T22:37:17.404Z,99590.06
2022-08-19T22:39:43.974Z,99605.41
2022-08-19T22:42:11.496Z,99598.66
2022-08-19T22:44:38.068Z,99609.28
2022-08-19T22:47:04.790Z,99600.47
2022-08-19T22:49:31.341Z,99592.69
2022-08-19T22:52:18.284Z,99599.44
2022-08-19T22:54:54.968Z,99584.38
2022-08-19T22:57:22.535Z,99590.06
2022-08-19T22:59:52.115Z,99598.63
2022-08-19T23:02:26.118Z,99613.50
2022-08-19T23:04:53.274Z,99603.75
2022-08-19T23:07:23.777Z,99611.31
2022-08-19T23:09:50.628Z,99609.72
2022-08-19T23:12:33.341Z,99613.66
2022-08-19T23:15:08.880Z,99612.59
2022-08-19T23:17:36.692Z,99604.53
2022-08-19T23:20:05.593Z,99602.75
2022-08-19T23:22:33.626Z,99612.06
2022-08-19T23:25:09.034Z,99617.72
2022-08-19T23:27:53.759Z,99612.19
2022-08-19T23:30:27.007Z,99607.38
2022-08-19T23:32:59.165Z,99595.03
2022-08-19T23:35:26.754Z,99601.22
2022-08-19T23:37:53.470Z,99598.72
2022-08-19T23:40:22.019Z,99589.34
2022-08-19T23:42:50.494Z,99587.50
2022-08-19T23:45:23.909Z,99582.09
2022-08-19T23:47:53.416Z,99604.41
2022-08-19T23:50:27.356Z,99600.84
2022-08-19T23:52:58.071Z,99614.00
2022-08-19T23:55:29.673Z,99614.06
2022-08-19T23:57:56.946Z,99610.88
